Weather at K-D Field

Public forecast

Using degrees Fahrenheit for public forecast. Weather courtesy of forecast.io.

Closest aviation weather report (METAR) to K-D Field

Closest report is Roswell Air Center Airport, 8.3 nm (15.3 km) W. Retrieved 2021/12/01 12:51 UTC (21 minutes ago):

KROW 011251Z AUTO 00000KT 10SM CLR M01/M07 A3016 RMK AO2 SLP194 T10061072

Closest aviation forecast (TAF) to K-D Field

Closest forecast is Roswell Air Center Airport, 8.3 nm (15.3 km) W. Retrieved 2021/12/01 12:27 UTC (45 minutes ago):

TAF KROW 011124Z 0112/0212 VRB05KT P6SM FEW250